sensor_id;sensor_type;location;lat;lon;timestamp;P1;durP1;ratioP1;P2;durP2;ratioP2
66523;SDS011;53350;52.210;5.160;2023-07-16T00:00:59;9.98;;;2.03;;
66523;SDS011;53350;52.210;5.160;2023-07-16T00:03:25;12.43;;;2.67;;
66523;SDS011;53350;52.210;5.160;2023-07-16T00:05:52;10.38;;;2.40;;
66523;SDS011;53350;52.210;5.160;2023-07-16T00:08:18;12.32;;;2.80;;
66523;SDS011;53350;52.210;5.160;2023-07-16T00:10:46;10.65;;;2.40;;
66523;SDS011;53350;52.210;5.160;2023-07-16T00:13:12;12.15;;;2.53;;
66523;SDS011;53350;52.210;5.160;2023-07-16T00:15:39;10.10;;;2.33;;
66523;SDS011;53350;52.210;5.160;2023-07-16T00:18:05;10.10;;;2.45;;
66523;SDS011;53350;52.210;5.160;2023-07-16T00:20:32;13.93;;;2.50;;
66523;SDS011;53350;52.210;5.160;2023-07-16T00:22:58;9.65;;;2.50;;
66523;SDS011;53350;52.210;5.160;2023-07-16T00:25:25;8.60;;;2.55;;
66523;SDS011;53350;52.210;5.160;2023-07-16T00:27:52;12.65;;;3.22;;
66523;SDS011;53350;52.210;5.160;2023-07-16T00:30:19;10.80;;;2.67;;
66523;SDS011;53350;52.210;5.160;2023-07-16T00:32:45;12.75;;;2.88;;
66523;SDS011;53350;52.210;5.160;2023-07-16T00:35:12;9.73;;;2.67;;
66523;SDS011;53350;52.210;5.160;2023-07-16T00:37:38;12.60;;;2.85;;
66523;SDS011;53350;52.210;5.160;2023-07-16T00:40:05;9.00;;;2.85;;
66523;SDS011;53350;52.210;5.160;2023-07-16T00:42:33;12.80;;;2.70;;
66523;SDS011;53350;52.210;5.160;2023-07-16T00:45:00;14.45;;;2.92;;
66523;SDS011;53350;52.210;5.160;2023-07-16T00:47:27;12.95;;;3.20;;
66523;SDS011;53350;52.210;5.160;2023-07-16T00:49:53;10.15;;;2.65;;
66523;SDS011;53350;52.210;5.160;2023-07-16T00:52:20;10.85;;;2.88;;
66523;SDS011;53350;52.210;5.160;2023-07-16T00:54:48;9.60;;;2.75;;
66523;SDS011;53350;52.210;5.160;2023-07-16T00:57:15;10.63;;;3.03;;
66523;SDS011;53350;52.210;5.160;2023-07-16T00:59:42;16.88;;;2.80;;
66523;SDS011;53350;52.210;5.160;2023-07-16T01:02:10;9.60;;;2.80;;
66523;SDS011;53350;52.210;5.160;2023-07-16T01:04:37;16.65;;;3.17;;
66523;SDS011;53350;52.210;5.160;2023-07-16T01:07:04;11.90;;;3.20;;
66523;SDS011;53350;52.210;5.160;2023-07-16T01:09:34;9.25;;;2.70;;
66523;SDS011;53350;52.210;5.160;2023-07-16T01:12:05;12.73;;;3.30;;
66523;SDS011;53350;52.210;5.160;2023-07-16T01:14:32;11.73;;;3.60;;
66523;SDS011;53350;52.210;5.160;2023-07-16T01:17:02;12.07;;;3.38;;
66523;SDS011;53350;52.210;5.160;2023-07-16T01:19:30;10.13;;;3.08;;
66523;SDS011;53350;52.210;5.160;2023-07-16T01:21:59;11.57;;;3.25;;
66523;SDS011;53350;52.210;5.160;2023-07-16T01:27:51;11.95;;;3.65;;
66523;SDS011;53350;52.210;5.160;2023-07-16T01:30:32;13.82;;;3.10;;
66523;SDS011;53350;52.210;5.160;2023-07-16T01:33:02;10.55;;;2.97;;
66523;SDS011;53350;52.210;5.160;2023-07-16T01:37:57;10.65;;;3.20;;
66523;SDS011;53350;52.210;5.160;2023-07-16T01:40:23;12.63;;;3.58;;
66523;SDS011;53350;52.210;5.160;2023-07-16T01:42:50;10.60;;;3.28;;
66523;SDS011;53350;52.210;5.160;2023-07-16T01:45:16;12.15;;;3.38;;
66523;SDS011;53350;52.210;5.160;2023-07-16T01:47:48;11.68;;;3.72;;
66523;SDS011;53350;52.210;5.160;2023-07-16T01:50:21;10.95;;;3.30;;
66523;SDS011;53350;52.210;5.160;2023-07-16T01:52:48;12.30;;;3.42;;
66523;SDS011;53350;52.210;5.160;2023-07-16T01:55:14;11.32;;;3.65;;
66523;SDS011;53350;52.210;5.160;2023-07-16T01:57:41;11.70;;;3.38;;
66523;SDS011;53350;52.210;5.160;2023-07-16T02:00:07;9.60;;;3.10;;
66523;SDS011;53350;52.210;5.160;2023-07-16T02:02:35;11.90;;;3.50;;
66523;SDS011;53350;52.210;5.160;2023-07-16T02:05:03;12.90;;;3.33;;
66523;SDS011;53350;52.210;5.160;2023-07-16T02:07:30;17.83;;;4.00;;
66523;SDS011;53350;52.210;5.160;2023-07-16T02:09:56;11.50;;;3.75;;
66523;SDS011;53350;52.210;5.160;2023-07-16T02:12:23;15.68;;;3.80;;
66523;SDS011;53350;52.210;5.160;2023-07-16T02:14:49;11.25;;;4.15;;
66523;SDS011;53350;52.210;5.160;2023-07-16T02:17:16;12.60;;;3.90;;
66523;SDS011;53350;52.210;5.160;2023-07-16T02:19:42;14.82;;;4.10;;
66523;SDS011;53350;52.210;5.160;2023-07-16T02:22:10;14.07;;;4.30;;
66523;SDS011;53350;52.210;5.160;2023-07-16T02:24:36;14.10;;;4.25;;
66523;SDS011;53350;52.210;5.160;2023-07-16T02:27:03;16.05;;;4.35;;
66523;SDS011;53350;52.210;5.160;2023-07-16T02:29:31;16.05;;;4.03;;
66523;SDS011;53350;52.210;5.160;2023-07-16T02:31:58;17.85;;;4.55;;
66523;SDS011;53350;52.210;5.160;2023-07-16T02:34:24;13.35;;;3.92;;
66523;SDS011;53350;52.210;5.160;2023-07-16T02:36:51;12.95;;;3.92;;
66523;SDS011;53350;52.210;5.160;2023-07-16T02:39:18;14.80;;;4.32;;
66523;SDS011;53350;52.210;5.160;2023-07-16T02:41:45;14.82;;;4.68;;
66523;SDS011;53350;52.210;5.160;2023-07-16T02:44:11;13.07;;;4.47;;
66523;SDS011;53350;52.210;5.160;2023-07-16T02:46:38;19.15;;;5.55;;
66523;SDS011;53350;52.210;5.160;2023-07-16T02:49:04;12.55;;;4.28;;
66523;SDS011;53350;52.210;5.160;2023-07-16T02:51:30;22.38;;;4.93;;
66523;SDS011;53350;52.210;5.160;2023-07-16T02:53:57;14.43;;;4.28;;
66523;SDS011;53350;52.210;5.160;2023-07-16T02:56:25;15.63;;;5.10;;
66523;SDS011;53350;52.210;5.160;2023-07-16T02:58:51;16.60;;;4.88;;
66523;SDS011;53350;52.210;5.160;2023-07-16T03:01:18;16.13;;;5.03;;
66523;SDS011;53350;52.210;5.160;2023-07-16T03:03:44;16.08;;;5.03;;
66523;SDS011;53350;52.210;5.160;2023-07-16T03:06:10;12.60;;;4.40;;
66523;SDS011;53350;52.210;5.160;2023-07-16T03:08:37;14.93;;;4.43;;
66523;SDS011;53350;52.210;5.160;2023-07-16T03:11:03;16.45;;;5.10;;
66523;SDS011;53350;52.210;5.160;2023-07-16T03:13:31;20.65;;;4.50;;
66523;SDS011;53350;52.210;5.160;2023-07-16T03:15:57;12.68;;;4.57;;
66523;SDS011;53350;52.210;5.160;2023-07-16T03:18:27;17.63;;;4.90;;
66523;SDS011;53350;52.210;5.160;2023-07-16T03:20:54;16.13;;;4.60;;
66523;SDS011;53350;52.210;5.160;2023-07-16T03:23:20;14.60;;;5.00;;
66523;SDS011;53350;52.210;5.160;2023-07-16T03:25:47;12.35;;;3.88;;
66523;SDS011;53350;52.210;5.160;2023-07-16T03:28:13;12.05;;;4.28;;
66523;SDS011;53350;52.210;5.160;2023-07-16T03:30:44;14.95;;;4.45;;
66523;SDS011;53350;52.210;5.160;2023-07-16T03:33:11;14.88;;;5.57;;
66523;SDS011;53350;52.210;5.160;2023-07-16T03:35:37;13.00;;;4.63;;
66523;SDS011;53350;52.210;5.160;2023-07-16T03:38:04;13.32;;;3.85;;
66523;SDS011;53350;52.210;5.160;2023-07-16T03:40:30;13.25;;;4.25;;
66523;SDS011;53350;52.210;5.160;2023-07-16T03:42:57;12.48;;;4.35;;
66523;SDS011;53350;52.210;5.160;2023-07-16T03:45:23;16.08;;;4.35;;
66523;SDS011;53350;52.210;5.160;2023-07-16T03:47:51;13.65;;;4.20;;
66523;SDS011;53350;52.210;5.160;2023-07-16T03:50:17;10.75;;;4.22;;
66523;SDS011;53350;52.210;5.160;2023-07-16T03:52:44;11.93;;;4.05;;
66523;SDS011;53350;52.210;5.160;2023-07-16T03:55:10;13.13;;;3.97;;
66523;SDS011;53350;52.210;5.160;2023-07-16T03:57:37;11.20;;;4.20;;
66523;SDS011;53350;52.210;5.160;2023-07-16T04:00:04;14.10;;;3.50;;
66523;SDS011;53350;52.210;5.160;2023-07-16T04:02:34;18.00;;;4.43;;
66523;SDS011;53350;52.210;5.160;2023-07-16T04:05:02;9.85;;;3.53;;
66523;SDS011;53350;52.210;5.160;2023-07-16T04:07:29;12.07;;;3.95;;
66523;SDS011;53350;52.210;5.160;2023-07-16T04:09:56;13.02;;;3.35;;
66523;SDS011;53350;52.210;5.160;2023-07-16T04:12:22;10.88;;;3.75;;
66523;SDS011;53350;52.210;5.160;2023-07-16T04:14:48;10.98;;;3.85;;
66523;SDS011;53350;52.210;5.160;2023-07-16T04:17:15;16.15;;;4.50;;
66523;SDS011;53350;52.210;5.160;2023-07-16T04:19:41;13.40;;;4.57;;
66523;SDS011;53350;52.210;5.160;2023-07-16T04:22:09;12.35;;;4.22;;
66523;SDS011;53350;52.210;5.160;2023-07-16T04:24:35;20.25;;;5.13;;
66523;SDS011;53350;52.210;5.160;2023-07-16T04:27:02;15.25;;;4.50;;
66523;SDS011;53350;52.210;5.160;2023-07-16T04:29:29;14.75;;;5.00;;
66523;SDS011;53350;52.210;5.160;2023-07-16T04:31:55;13.32;;;4.38;;
66523;SDS011;53350;52.210;5.160;2023-07-16T04:34:21;14.50;;;4.63;;
66523;SDS011;53350;52.210;5.160;2023-07-16T04:36:48;13.25;;;5.03;;
66523;SDS011;53350;52.210;5.160;2023-07-16T04:39:16;17.40;;;5.18;;
66523;SDS011;53350;52.210;5.160;2023-07-16T04:41:42;12.25;;;4.80;;
66523;SDS011;53350;52.210;5.160;2023-07-16T04:44:09;11.20;;;4.47;;
66523;SDS011;53350;52.210;5.160;2023-07-16T04:46:35;15.77;;;5.00;;
66523;SDS011;53350;52.210;5.160;2023-07-16T04:49:02;13.07;;;4.72;;
66523;SDS011;53350;52.210;5.160;2023-07-16T04:51:30;16.85;;;4.93;;
66523;SDS011;53350;52.210;5.160;2023-07-16T04:53:57;13.07;;;5.03;;
66523;SDS011;53350;52.210;5.160;2023-07-16T04:56:25;8.52;;;3.63;;
66523;SDS011;53350;52.210;5.160;2023-07-16T04:58:51;10.02;;;4.45;;
66523;SDS011;53350;52.210;5.160;2023-07-16T05:01:17;19.73;;;5.20;;
66523;SDS011;53350;52.210;5.160;2023-07-16T05:03:45;15.90;;;5.05;;
66523;SDS011;53350;52.210;5.160;2023-07-16T05:06:12;11.10;;;4.57;;
66523;SDS011;53350;52.210;5.160;2023-07-16T05:08:38;13.73;;;5.03;;
66523;SDS011;53350;52.210;5.160;2023-07-16T05:11:04;13.30;;;4.32;;
66523;SDS011;53350;52.210;5.160;2023-07-16T05:13:32;11.20;;;4.43;;
66523;SDS011;53350;52.210;5.160;2023-07-16T05:15:59;14.68;;;5.53;;
66523;SDS011;53350;52.210;5.160;2023-07-16T05:18:25;13.82;;;4.70;;
66523;SDS011;53350;52.210;5.160;2023-07-16T05:20:52;13.85;;;4.78;;
66523;SDS011;53350;52.210;5.160;2023-07-16T05:23:18;11.45;;;4.70;;
66523;SDS011;53350;52.210;5.160;2023-07-16T05:25:45;14.25;;;5.60;;
66523;SDS011;53350;52.210;5.160;2023-07-16T05:28:12;10.98;;;4.38;;
66523;SDS011;53350;52.210;5.160;2023-07-16T05:30:40;9.27;;;4.60;;
66523;SDS011;53350;52.210;5.160;2023-07-16T05:33:06;10.68;;;4.80;;
66523;SDS011;53350;52.210;5.160;2023-07-16T05:35:33;12.45;;;4.65;;
66523;SDS011;53350;52.210;5.160;2023-07-16T05:37:59;11.38;;;4.63;;
66523;SDS011;53350;52.210;5.160;2023-07-16T05:40:26;11.93;;;4.90;;
66523;SDS011;53350;52.210;5.160;2023-07-16T05:42:52;14.15;;;4.43;;
66523;SDS011;53350;52.210;5.160;2023-07-16T05:45:18;11.73;;;3.67;;
66523;SDS011;53350;52.210;5.160;2023-07-16T05:47:46;13.18;;;5.05;;
66523;SDS011;53350;52.210;5.160;2023-07-16T05:50:13;12.90;;;4.70;;
66523;SDS011;53350;52.210;5.160;2023-07-16T05:52:39;13.40;;;4.85;;
66523;SDS011;53350;52.210;5.160;2023-07-16T05:55:06;12.05;;;4.82;;
66523;SDS011;53350;52.210;5.160;2023-07-16T05:57:33;12.43;;;4.53;;
66523;SDS011;53350;52.210;5.160;2023-07-16T05:59:59;13.25;;;4.65;;
66523;SDS011;53350;52.210;5.160;2023-07-16T06:02:25;10.90;;;4.30;;
66523;SDS011;53350;52.210;5.160;2023-07-16T06:04:53;12.65;;;5.10;;
66523;SDS011;53350;52.210;5.160;2023-07-16T06:07:20;15.40;;;4.88;;
66523;SDS011;53350;52.210;5.160;2023-07-16T06:09:46;13.68;;;5.03;;
66523;SDS011;53350;52.210;5.160;2023-07-16T06:12:13;14.95;;;5.45;;
66523;SDS011;53350;52.210;5.160;2023-07-16T06:14:39;11.05;;;4.63;;
66523;SDS011;53350;52.210;5.160;2023-07-16T06:17:06;10.30;;;4.65;;
66523;SDS011;53350;52.210;5.160;2023-07-16T06:19:32;13.82;;;4.65;;
66523;SDS011;53350;52.210;5.160;2023-07-16T06:22:00;13.95;;;4.68;;
66523;SDS011;53350;52.210;5.160;2023-07-16T06:24:26;13.48;;;5.50;;
66523;SDS011;53350;52.210;5.160;2023-07-16T06:26:53;11.60;;;5.50;;
66523;SDS011;53350;52.210;5.160;2023-07-16T06:29:19;14.25;;;5.32;;
66523;SDS011;53350;52.210;5.160;2023-07-16T06:31:53;16.13;;;5.90;;
66523;SDS011;53350;52.210;5.160;2023-07-16T06:34:21;18.27;;;5.28;;
66523;SDS011;53350;52.210;5.160;2023-07-16T06:36:48;13.52;;;4.28;;
66523;SDS011;53350;52.210;5.160;2023-07-16T06:39:15;19.13;;;5.57;;
66523;SDS011;53350;52.210;5.160;2023-07-16T06:41:42;14.13;;;4.68;;
66523;SDS011;53350;52.210;5.160;2023-07-16T06:44:08;12.40;;;4.45;;
66523;SDS011;53350;52.210;5.160;2023-07-16T06:46:35;15.07;;;5.40;;
66523;SDS011;53350;52.210;5.160;2023-07-16T06:49:01;13.70;;;4.80;;
66523;SDS011;53350;52.210;5.160;2023-07-16T06:51:28;13.60;;;5.47;;
66523;SDS011;53350;52.210;5.160;2023-07-16T06:56:23;13.05;;;5.40;;
66523;SDS011;53350;52.210;5.160;2023-07-16T06:58:50;12.93;;;4.90;;
66523;SDS011;53350;52.210;5.160;2023-07-16T07:01:16;11.38;;;5.10;;
66523;SDS011;53350;52.210;5.160;2023-07-16T07:03:43;14.25;;;5.50;;
66523;SDS011;53350;52.210;5.160;2023-07-16T07:06:09;13.13;;;5.10;;
66523;SDS011;53350;52.210;5.160;2023-07-16T07:08:36;13.52;;;5.93;;
66523;SDS011;53350;52.210;5.160;2023-07-16T07:11:03;10.70;;;3.55;;
66523;SDS011;53350;52.210;5.160;2023-07-16T07:13:31;10.98;;;4.65;;
66523;SDS011;53350;52.210;5.160;2023-07-16T07:15:58;15.20;;;5.72;;
66523;SDS011;53350;52.210;5.160;2023-07-16T07:18:24;16.83;;;6.13;;
66523;SDS011;53350;52.210;5.160;2023-07-16T07:20:51;14.48;;;4.50;;
66523;SDS011;53350;52.210;5.160;2023-07-16T07:23:17;11.77;;;4.80;;
66523;SDS011;53350;52.210;5.160;2023-07-16T07:25:48;11.55;;;4.43;;
66523;SDS011;53350;52.210;5.160;2023-07-16T07:28:15;14.77;;;5.35;;
66523;SDS011;53350;52.210;5.160;2023-07-16T07:30:43;11.20;;;4.75;;
66523;SDS011;53350;52.210;5.160;2023-07-16T07:33:09;12.80;;;5.78;;
66523;SDS011;53350;52.210;5.160;2023-07-16T07:35:36;11.73;;;5.00;;
66523;SDS011;53350;52.210;5.160;2023-07-16T07:38:02;20.55;;;5.40;;
66523;SDS011;53350;52.210;5.160;2023-07-16T07:40:29;12.80;;;5.68;;
66523;SDS011;53350;52.210;5.160;2023-07-16T07:42:55;15.13;;;5.38;;
66523;SDS011;53350;52.210;5.160;2023-07-16T07:45:22;18.02;;;5.50;;
66523;SDS011;53350;52.210;5.160;2023-07-16T07:47:50;10.00;;;4.97;;
66523;SDS011;53350;52.210;5.160;2023-07-16T07:50:17;16.15;;;6.20;;
66523;SDS011;53350;52.210;5.160;2023-07-16T07:52:43;15.95;;;5.00;;
66523;SDS011;53350;52.210;5.160;2023-07-16T07:55:10;13.45;;;5.13;;
66523;SDS011;53350;52.210;5.160;2023-07-16T07:57:36;15.98;;;6.00;;
66523;SDS011;53350;52.210;5.160;2023-07-16T08:00:03;14.02;;;5.80;;
66523;SDS011;53350;52.210;5.160;2023-07-16T08:02:31;12.80;;;5.65;;
66523;SDS011;53350;52.210;5.160;2023-07-16T08:04:58;15.93;;;5.90;;
66523;SDS011;53350;52.210;5.160;2023-07-16T08:07:25;12.57;;;5.68;;
66523;SDS011;53350;52.210;5.160;2023-07-16T08:09:51;13.52;;;5.25;;
66523;SDS011;53350;52.210;5.160;2023-07-16T08:12:18;9.25;;;3.90;;
66523;SDS011;53350;52.210;5.160;2023-07-16T08:14:44;13.80;;;6.13;;
66523;SDS011;53350;52.210;5.160;2023-07-16T08:17:11;13.90;;;4.90;;
66523;SDS011;53350;52.210;5.160;2023-07-16T08:19:38;14.63;;;6.00;;
66523;SDS011;53350;52.210;5.160;2023-07-16T08:22:06;12.82;;;5.47;;
66523;SDS011;53350;52.210;5.160;2023-07-16T08:24:32;13.90;;;6.32;;
66523;SDS011;53350;52.210;5.160;2023-07-16T08:26:58;14.43;;;5.78;;
66523;SDS011;53350;52.210;5.160;2023-07-16T08:29:25;18.85;;;5.38;;
66523;SDS011;53350;52.210;5.160;2023-07-16T08:31:51;12.23;;;5.78;;
66523;SDS011;53350;52.210;5.160;2023-07-16T08:34:18;8.98;;;4.07;;
66523;SDS011;53350;52.210;5.160;2023-07-16T08:36:44;14.45;;;5.50;;
66523;SDS011;53350;52.210;5.160;2023-07-16T08:39:12;12.07;;;4.50;;
66523;SDS011;53350;52.210;5.160;2023-07-16T08:41:38;17.02;;;5.97;;
66523;SDS011;53350;52.210;5.160;2023-07-16T08:44:05;13.43;;;5.97;;
66523;SDS011;53350;52.210;5.160;2023-07-16T08:46:32;10.98;;;5.47;;
66523;SDS011;53350;52.210;5.160;2023-07-16T08:48:58;14.95;;;6.20;;
66523;SDS011;53350;52.210;5.160;2023-07-16T08:51:26;9.50;;;4.40;;
66523;SDS011;53350;52.210;5.160;2023-07-16T08:53:52;11.50;;;5.10;;
66523;SDS011;53350;52.210;5.160;2023-07-16T08:56:20;11.05;;;5.03;;
66523;SDS011;53350;52.210;5.160;2023-07-16T09:01:14;12.82;;;4.97;;
66523;SDS011;53350;52.210;5.160;2023-07-16T09:03:43;13.07;;;3.95;;
66523;SDS011;53350;52.210;5.160;2023-07-16T09:06:09;12.00;;;4.47;;
66523;SDS011;53350;52.210;5.160;2023-07-16T09:08:35;13.75;;;5.63;;
66523;SDS011;53350;52.210;5.160;2023-07-16T09:11:02;9.35;;;4.78;;
66523;SDS011;53350;52.210;5.160;2023-07-16T09:13:30;14.75;;;4.43;;
66523;SDS011;53350;52.210;5.160;2023-07-16T09:15:57;15.05;;;5.40;;
66523;SDS011;53350;52.210;5.160;2023-07-16T09:18:24;12.07;;;6.38;;
66523;SDS011;53350;52.210;5.160;2023-07-16T09:20:53;10.52;;;4.93;;
66523;SDS011;53350;52.210;5.160;2023-07-16T09:23:23;13.25;;;5.55;;
66523;SDS011;53350;52.210;5.160;2023-07-16T09:25:50;10.75;;;4.80;;
66523;SDS011;53350;52.210;5.160;2023-07-16T09:28:18;18.05;;;5.22;;
66523;SDS011;53350;52.210;5.160;2023-07-16T09:30:46;13.15;;;5.57;;
66523;SDS011;53350;52.210;5.160;2023-07-16T09:33:13;13.60;;;5.43;;
66523;SDS011;53350;52.210;5.160;2023-07-16T09:35:40;9.70;;;4.10;;
66523;SDS011;53350;52.210;5.160;2023-07-16T09:38:07;13.02;;;4.43;;
66523;SDS011;53350;52.210;5.160;2023-07-16T09:40:35;12.75;;;5.35;;
66523;SDS011;53350;52.210;5.160;2023-07-16T09:43:02;10.27;;;5.10;;
66523;SDS011;53350;52.210;5.160;2023-07-16T09:45:29;12.13;;;5.13;;
66523;SDS011;53350;52.210;5.160;2023-07-16T09:47:57;10.52;;;5.03;;
66523;SDS011;53350;52.210;5.160;2023-07-16T09:50:24;12.77;;;5.03;;
66523;SDS011;53350;52.210;5.160;2023-07-16T09:52:53;12.43;;;4.82;;
66523;SDS011;53350;52.210;5.160;2023-07-16T09:55:22;12.70;;;5.68;;
66523;SDS011;53350;52.210;5.160;2023-07-16T09:57:49;14.73;;;5.43;;
66523;SDS011;53350;52.210;5.160;2023-07-16T10:00:18;14.52;;;5.35;;
66523;SDS011;53350;52.210;5.160;2023-07-16T10:05:15;10.88;;;4.65;;
66523;SDS011;53350;52.210;5.160;2023-07-16T10:07:42;12.98;;;5.05;;
66523;SDS011;53350;52.210;5.160;2023-07-16T10:10:09;12.80;;;5.13;;
66523;SDS011;53350;52.210;5.160;2023-07-16T10:12:37;9.73;;;4.43;;
66523;SDS011;53350;52.210;5.160;2023-07-16T10:15:04;10.52;;;5.32;;
66523;SDS011;53350;52.210;5.160;2023-07-16T10:17:32;11.88;;;5.00;;
66523;SDS011;53350;52.210;5.160;2023-07-16T10:19:59;8.80;;;4.53;;
66523;SDS011;53350;52.210;5.160;2023-07-16T10:22:35;12.32;;;4.82;;
66523;SDS011;53350;52.210;5.160;2023-07-16T10:25:03;9.57;;;3.67;;
66523;SDS011;53350;52.210;5.160;2023-07-16T10:27:34;10.48;;;4.40;;
66523;SDS011;53350;52.210;5.160;2023-07-16T10:30:01;11.55;;;4.78;;
66523;SDS011;53350;52.210;5.160;2023-07-16T10:32:29;8.48;;;4.80;;
66523;SDS011;53350;52.210;5.160;2023-07-16T10:34:57;11.45;;;4.78;;
66523;SDS011;53350;52.210;5.160;2023-07-16T10:37:24;13.02;;;4.63;;
66523;SDS011;53350;52.210;5.160;2023-07-16T10:39:53;12.93;;;5.43;;
66523;SDS011;53350;52.210;5.160;2023-07-16T10:42:21;11.90;;;4.82;;
66523;SDS011;53350;52.210;5.160;2023-07-16T10:47:19;12.10;;;4.45;;
66523;SDS011;53350;52.210;5.160;2023-07-16T10:49:48;11.60;;;3.90;;
66523;SDS011;53350;52.210;5.160;2023-07-16T10:52:17;11.18;;;4.53;;
66523;SDS011;53350;52.210;5.160;2023-07-16T10:54:44;13.15;;;4.85;;
66523;SDS011;53350;52.210;5.160;2023-07-16T10:57:11;10.13;;;4.20;;
66523;SDS011;53350;52.210;5.160;2023-07-16T11:02:05;11.65;;;4.07;;
66523;SDS011;53350;52.210;5.160;2023-07-16T11:04:36;8.82;;;3.50;;
66523;SDS011;53350;52.210;5.160;2023-07-16T11:07:06;9.23;;;3.38;;
66523;SDS011;53350;52.210;5.160;2023-07-16T11:09:34;10.90;;;3.75;;
66523;SDS011;53350;52.210;5.160;2023-07-16T11:12:07;8.55;;;3.20;;
66523;SDS011;53350;52.210;5.160;2023-07-16T11:14:35;9.45;;;4.13;;
66523;SDS011;53350;52.210;5.160;2023-07-16T11:17:05;9.40;;;3.13;;
66523;SDS011;53350;52.210;5.160;2023-07-16T11:19:33;8.50;;;2.78;;
66523;SDS011;53350;52.210;5.160;2023-07-16T11:22:00;7.90;;;3.15;;
66523;SDS011;53350;52.210;5.160;2023-07-16T11:24:28;7.27;;;3.13;;
66523;SDS011;53350;52.210;5.160;2023-07-16T11:26:54;10.80;;;3.08;;
66523;SDS011;53350;52.210;5.160;2023-07-16T11:29:22;11.82;;;3.58;;
66523;SDS011;53350;52.210;5.160;2023-07-16T11:31:50;9.38;;;3.00;;
66523;SDS011;53350;52.210;5.160;2023-07-16T11:34:19;8.70;;;2.33;;
66523;SDS011;53350;52.210;5.160;2023-07-16T11:36:45;10.13;;;2.88;;
66523;SDS011;53350;52.210;5.160;2023-07-16T11:39:12;8.43;;;2.88;;
66523;SDS011;53350;52.210;5.160;2023-07-16T11:41:38;9.70;;;3.05;;
66523;SDS011;53350;52.210;5.160;2023-07-16T11:44:06;8.50;;;2.78;;
66523;SDS011;53350;52.210;5.160;2023-07-16T11:46:34;10.85;;;3.28;;
66523;SDS011;53350;52.210;5.160;2023-07-16T11:49:02;10.05;;;3.15;;
66523;SDS011;53350;52.210;5.160;2023-07-16T11:51:29;8.95;;;3.47;;
66523;SDS011;53350;52.210;5.160;2023-07-16T11:53:56;8.15;;;3.40;;
66523;SDS011;53350;52.210;5.160;2023-07-16T11:56:23;10.13;;;3.17;;
66523;SDS011;53350;52.210;5.160;2023-07-16T11:58:49;10.85;;;3.95;;
66523;SDS011;53350;52.210;5.160;2023-07-16T12:01:16;9.82;;;2.90;;
66523;SDS011;53350;52.210;5.160;2023-07-16T12:03:43;10.13;;;3.72;;
66523;SDS011;53350;52.210;5.160;2023-07-16T12:06:10;8.65;;;3.70;;
66523;SDS011;53350;52.210;5.160;2023-07-16T12:08:37;8.48;;;3.35;;
66523;SDS011;53350;52.210;5.160;2023-07-16T12:11:03;7.28;;;3.13;;
66523;SDS011;53350;52.210;5.160;2023-07-16T12:13:30;11.57;;;3.35;;
66523;SDS011;53350;52.210;5.160;2023-07-16T12:15:56;10.23;;;3.47;;
66523;SDS011;53350;52.210;5.160;2023-07-16T12:18:22;9.13;;;3.30;;
66523;SDS011;53350;52.210;5.160;2023-07-16T12:20:49;10.30;;;3.25;;
66523;SDS011;53350;52.210;5.160;2023-07-16T12:23:17;8.40;;;3.60;;
66523;SDS011;53350;52.210;5.160;2023-07-16T12:25:43;11.38;;;3.38;;
66523;SDS011;53350;52.210;5.160;2023-07-16T12:28:09;9.40;;;3.10;;
66523;SDS011;53350;52.210;5.160;2023-07-16T12:30:37;8.57;;;2.37;;
66523;SDS011;53350;52.210;5.160;2023-07-16T12:33:03;9.15;;;2.90;;
66523;SDS011;53350;52.210;5.160;2023-07-16T12:35:29;7.40;;;2.95;;
66523;SDS011;53350;52.210;5.160;2023-07-16T12:37:56;8.38;;;3.30;;
66523;SDS011;53350;52.210;5.160;2023-07-16T12:40:24;7.30;;;2.70;;
66523;SDS011;53350;52.210;5.160;2023-07-16T12:42:51;8.65;;;2.95;;
66523;SDS011;53350;52.210;5.160;2023-07-16T12:45:17;7.47;;;3.05;;
66523;SDS011;53350;52.210;5.160;2023-07-16T12:47:44;7.63;;;3.35;;
66523;SDS011;53350;52.210;5.160;2023-07-16T12:50:10;7.60;;;2.90;;
66523;SDS011;53350;52.210;5.160;2023-07-16T12:52:36;12.65;;;3.15;;
66523;SDS011;53350;52.210;5.160;2023-07-16T12:55:03;9.63;;;2.58;;
66523;SDS011;53350;52.210;5.160;2023-07-16T12:57:31;9.52;;;2.85;;
66523;SDS011;53350;52.210;5.160;2023-07-16T12:59:58;9.30;;;3.10;;
66523;SDS011;53350;52.210;5.160;2023-07-16T13:02:24;10.40;;;3.30;;
66523;SDS011;53350;52.210;5.160;2023-07-16T13:04:51;9.85;;;3.10;;
66523;SDS011;53350;52.210;5.160;2023-07-16T13:07:17;7.53;;;2.30;;
66523;SDS011;53350;52.210;5.160;2023-07-16T13:09:43;17.42;;;2.78;;
66523;SDS011;53350;52.210;5.160;2023-07-16T13:12:10;8.38;;;2.55;;
66523;SDS011;53350;52.210;5.160;2023-07-16T13:14:38;13.30;;;3.10;;
66523;SDS011;53350;52.210;5.160;2023-07-16T13:17:04;11.65;;;2.40;;
66523;SDS011;53350;52.210;5.160;2023-07-16T13:19:31;7.80;;;2.30;;
66523;SDS011;53350;52.210;5.160;2023-07-16T13:21:57;8.20;;;2.70;;
66523;SDS011;53350;52.210;5.160;2023-07-16T13:24:24;9.93;;;2.75;;
66523;SDS011;53350;52.210;5.160;2023-07-16T13:26:51;7.85;;;2.58;;
66523;SDS011;53350;52.210;5.160;2023-07-16T13:29:17;8.43;;;2.20;;
66523;SDS011;53350;52.210;5.160;2023-07-16T13:31:45;10.45;;;2.42;;
66523;SDS011;53350;52.210;5.160;2023-07-16T13:34:11;7.55;;;2.03;;
66523;SDS011;53350;52.210;5.160;2023-07-16T13:36:38;10.10;;;2.20;;
66523;SDS011;53350;52.210;5.160;2023-07-16T13:39:04;9.20;;;2.30;;
66523;SDS011;53350;52.210;5.160;2023-07-16T13:41:31;11.07;;;2.08;;
66523;SDS011;53350;52.210;5.160;2023-07-16T13:43:58;10.05;;;2.15;;
66523;SDS011;53350;52.210;5.160;2023-07-16T13:46:24;7.60;;;2.13;;
66523;SDS011;53350;52.210;5.160;2023-07-16T13:48:52;7.43;;;2.33;;
66523;SDS011;53350;52.210;5.160;2023-07-16T13:51:19;8.85;;;2.08;;
66523;SDS011;53350;52.210;5.160;2023-07-16T13:53:45;9.98;;;2.05;;
66523;SDS011;53350;52.210;5.160;2023-07-16T13:56:11;9.15;;;2.63;;
66523;SDS011;53350;52.210;5.160;2023-07-16T13:58:38;8.43;;;2.45;;
66523;SDS011;53350;52.210;5.160;2023-07-16T14:01:04;12.40;;;2.47;;
66523;SDS011;53350;52.210;5.160;2023-07-16T14:03:31;17.65;;;2.10;;
66523;SDS011;53350;52.210;5.160;2023-07-16T14:05:58;11.07;;;2.13;;
66523;SDS011;53350;52.210;5.160;2023-07-16T14:08:25;7.38;;;1.80;;
66523;SDS011;53350;52.210;5.160;2023-07-16T14:10:53;17.55;;;2.00;;
66523;SDS011;53350;52.210;5.160;2023-07-16T14:13:23;9.07;;;2.13;;
66523;SDS011;53350;52.210;5.160;2023-07-16T14:15:49;8.52;;;1.95;;
66523;SDS011;53350;52.210;5.160;2023-07-16T14:18:15;10.23;;;2.05;;
66523;SDS011;53350;52.210;5.160;2023-07-16T14:20:42;9.40;;;2.25;;
66523;SDS011;53350;52.210;5.160;2023-07-16T14:23:10;8.10;;;1.92;;
66523;SDS011;53350;52.210;5.160;2023-07-16T14:25:36;6.13;;;1.63;;
66523;SDS011;53350;52.210;5.160;2023-07-16T14:28:03;9.80;;;2.03;;
66523;SDS011;53350;52.210;5.160;2023-07-16T14:30:29;7.88;;;1.67;;
66523;SDS011;53350;52.210;5.160;2023-07-16T14:32:56;9.43;;;2.17;;
66523;SDS011;53350;52.210;5.160;2023-07-16T14:37:50;5.80;;;1.65;;
66523;SDS011;53350;52.210;5.160;2023-07-16T14:40:18;10.23;;;2.20;;
66523;SDS011;53350;52.210;5.160;2023-07-16T14:42:44;9.88;;;2.25;;
66523;SDS011;53350;52.210;5.160;2023-07-16T14:45:11;8.30;;;2.22;;
66523;SDS011;53350;52.210;5.160;2023-07-16T14:47:37;7.32;;;1.70;;
66523;SDS011;53350;52.210;5.160;2023-07-16T14:50:04;10.88;;;2.00;;
66523;SDS011;53350;52.210;5.160;2023-07-16T14:52:31;13.07;;;2.15;;
66523;SDS011;53350;52.210;5.160;2023-07-16T14:54:57;7.05;;;1.60;;
66523;SDS011;53350;52.210;5.160;2023-07-16T14:57:25;10.73;;;1.95;;